sensor_id;sensor_type;location;lat;lon;timestamp;P1;durP1;ratioP1;P2;durP2;ratioP2
15266;SDS011;7735;49.144;8.668;2023-06-26T00:01:39;6.10;;;4.17;;
15266;SDS011;7735;49.144;8.668;2023-06-26T00:04:08;5.83;;;4.30;;
15266;SDS011;7735;49.144;8.668;2023-06-26T00:06:39;5.57;;;4.23;;
15266;SDS011;7735;49.144;8.668;2023-06-26T00:09:06;8.30;;;4.40;;
15266;SDS011;7735;49.144;8.668;2023-06-26T00:11:32;9.80;;;4.30;;
15266;SDS011;7735;49.144;8.668;2023-06-26T00:13:59;6.90;;;4.20;;
15266;SDS011;7735;49.144;8.668;2023-06-26T00:16:26;6.47;;;4.50;;
15266;SDS011;7735;49.144;8.668;2023-06-26T00:18:56;6.60;;;4.47;;
15266;SDS011;7735;49.144;8.668;2023-06-26T00:21:31;6.07;;;4.13;;
15266;SDS011;7735;49.144;8.668;2023-06-26T00:23:57;6.53;;;4.23;;
15266;SDS011;7735;49.144;8.668;2023-06-26T00:26:24;6.67;;;4.63;;
15266;SDS011;7735;49.144;8.668;2023-06-26T00:28:50;5.93;;;4.13;;
15266;SDS011;7735;49.144;8.668;2023-06-26T00:31:17;6.10;;;4.30;;
15266;SDS011;7735;49.144;8.668;2023-06-26T00:33:43;5.47;;;4.13;;
15266;SDS011;7735;49.144;8.668;2023-06-26T00:36:10;6.73;;;4.60;;
15266;SDS011;7735;49.144;8.668;2023-06-26T00:38:38;5.80;;;3.87;;
15266;SDS011;7735;49.144;8.668;2023-06-26T00:41:05;7.17;;;4.50;;
15266;SDS011;7735;49.144;8.668;2023-06-26T00:43:37;6.33;;;4.10;;
15266;SDS011;7735;49.144;8.668;2023-06-26T00:46:03;5.70;;;4.23;;
15266;SDS011;7735;49.144;8.668;2023-06-26T00:48:31;6.10;;;4.40;;
15266;SDS011;7735;49.144;8.668;2023-06-26T00:51:02;5.80;;;4.20;;
15266;SDS011;7735;49.144;8.668;2023-06-26T00:53:30;5.87;;;4.10;;
15266;SDS011;7735;49.144;8.668;2023-06-26T00:55:58;5.97;;;4.47;;
15266;SDS011;7735;49.144;8.668;2023-06-26T00:58:25;5.67;;;3.97;;
15266;SDS011;7735;49.144;8.668;2023-06-26T01:00:52;6.27;;;4.17;;
15266;SDS011;7735;49.144;8.668;2023-06-26T01:03:19;6.03;;;4.03;;
15266;SDS011;7735;49.144;8.668;2023-06-26T01:05:48;8.47;;;4.37;;
15266;SDS011;7735;49.144;8.668;2023-06-26T01:08:16;6.83;;;4.10;;
15266;SDS011;7735;49.144;8.668;2023-06-26T01:10:44;7.33;;;4.27;;
15266;SDS011;7735;49.144;8.668;2023-06-26T01:13:13;5.77;;;4.10;;
15266;SDS011;7735;49.144;8.668;2023-06-26T01:15:40;7.77;;;4.53;;
15266;SDS011;7735;49.144;8.668;2023-06-26T01:18:07;6.53;;;4.53;;
15266;SDS011;7735;49.144;8.668;2023-06-26T01:20:35;5.87;;;4.40;;
15266;SDS011;7735;49.144;8.668;2023-06-26T01:23:05;5.63;;;4.00;;
15266;SDS011;7735;49.144;8.668;2023-06-26T01:25:41;6.63;;;4.50;;
15266;SDS011;7735;49.144;8.668;2023-06-26T01:28:22;7.97;;;4.60;;
15266;SDS011;7735;49.144;8.668;2023-06-26T01:30:49;6.20;;;4.67;;
15266;SDS011;7735;49.144;8.668;2023-06-26T01:33:17;6.23;;;4.40;;
15266;SDS011;7735;49.144;8.668;2023-06-26T01:35:44;7.67;;;5.10;;
15266;SDS011;7735;49.144;8.668;2023-06-26T01:38:12;6.07;;;4.03;;
15266;SDS011;7735;49.144;8.668;2023-06-26T01:40:39;8.00;;;4.43;;
15266;SDS011;7735;49.144;8.668;2023-06-26T01:43:06;6.27;;;4.60;;
15266;SDS011;7735;49.144;8.668;2023-06-26T01:45:41;5.73;;;4.17;;
15266;SDS011;7735;49.144;8.668;2023-06-26T01:48:11;7.20;;;4.80;;
15266;SDS011;7735;49.144;8.668;2023-06-26T01:50:42;6.27;;;4.43;;
15266;SDS011;7735;49.144;8.668;2023-06-26T01:53:10;7.83;;;4.77;;
15266;SDS011;7735;49.144;8.668;2023-06-26T01:55:44;7.83;;;4.47;;
15266;SDS011;7735;49.144;8.668;2023-06-26T01:58:13;7.43;;;4.43;;
15266;SDS011;7735;49.144;8.668;2023-06-26T02:00:43;8.13;;;4.60;;
15266;SDS011;7735;49.144;8.668;2023-06-26T02:03:10;6.27;;;4.53;;
15266;SDS011;7735;49.144;8.668;2023-06-26T02:05:36;6.87;;;4.80;;
15266;SDS011;7735;49.144;8.668;2023-06-26T02:08:03;7.87;;;5.20;;
15266;SDS011;7735;49.144;8.668;2023-06-26T02:10:29;7.03;;;4.87;;
15266;SDS011;7735;49.144;8.668;2023-06-26T02:12:56;6.40;;;4.50;;
15266;SDS011;7735;49.144;8.668;2023-06-26T02:15:26;7.67;;;4.60;;
15266;SDS011;7735;49.144;8.668;2023-06-26T02:17:56;6.23;;;4.63;;
15266;SDS011;7735;49.144;8.668;2023-06-26T02:20:23;6.47;;;4.80;;
15266;SDS011;7735;49.144;8.668;2023-06-26T02:22:50;7.47;;;4.83;;
15266;SDS011;7735;49.144;8.668;2023-06-26T02:25:17;7.37;;;4.70;;
15266;SDS011;7735;49.144;8.668;2023-06-26T02:27:43;6.63;;;4.43;;
15266;SDS011;7735;49.144;8.668;2023-06-26T02:30:10;6.50;;;4.73;;
15266;SDS011;7735;49.144;8.668;2023-06-26T02:32:37;6.97;;;4.30;;
15266;SDS011;7735;49.144;8.668;2023-06-26T02:35:06;8.37;;;4.97;;
15266;SDS011;7735;49.144;8.668;2023-06-26T02:37:33;6.77;;;4.43;;
15266;SDS011;7735;49.144;8.668;2023-06-26T02:40:00;7.20;;;4.23;;
15266;SDS011;7735;49.144;8.668;2023-06-26T02:42:26;6.50;;;5.10;;
15266;SDS011;7735;49.144;8.668;2023-06-26T02:44:53;6.60;;;4.83;;
15266;SDS011;7735;49.144;8.668;2023-06-26T02:47:19;9.63;;;4.60;;
15266;SDS011;7735;49.144;8.668;2023-06-26T02:49:46;7.17;;;4.97;;
15266;SDS011;7735;49.144;8.668;2023-06-26T02:52:14;7.00;;;4.63;;
15266;SDS011;7735;49.144;8.668;2023-06-26T02:54:40;8.13;;;4.23;;
15266;SDS011;7735;49.144;8.668;2023-06-26T02:57:07;6.87;;;4.80;;
15266;SDS011;7735;49.144;8.668;2023-06-26T02:59:35;7.40;;;4.93;;
15266;SDS011;7735;49.144;8.668;2023-06-26T03:02:01;5.77;;;3.70;;
15266;SDS011;7735;49.144;8.668;2023-06-26T03:04:28;6.03;;;4.80;;
15266;SDS011;7735;49.144;8.668;2023-06-26T03:06:54;8.17;;;4.73;;
15266;SDS011;7735;49.144;8.668;2023-06-26T03:09:22;8.27;;;4.97;;
15266;SDS011;7735;49.144;8.668;2023-06-26T03:11:49;7.87;;;4.87;;
15266;SDS011;7735;49.144;8.668;2023-06-26T03:14:16;7.87;;;4.47;;
15266;SDS011;7735;49.144;8.668;2023-06-26T03:16:42;7.37;;;4.73;;
15266;SDS011;7735;49.144;8.668;2023-06-26T03:19:09;8.20;;;5.20;;
15266;SDS011;7735;49.144;8.668;2023-06-26T03:21:35;10.07;;;5.40;;
15266;SDS011;7735;49.144;8.668;2023-06-26T03:24:02;6.03;;;4.67;;
15266;SDS011;7735;49.144;8.668;2023-06-26T03:26:30;7.50;;;5.07;;
15266;SDS011;7735;49.144;8.668;2023-06-26T03:28:57;8.13;;;5.27;;
15266;SDS011;7735;49.144;8.668;2023-06-26T03:31:24;5.43;;;4.20;;
15266;SDS011;7735;49.144;8.668;2023-06-26T03:34:01;8.07;;;4.70;;
15266;SDS011;7735;49.144;8.668;2023-06-26T03:36:27;7.73;;;5.07;;
15266;SDS011;7735;49.144;8.668;2023-06-26T03:38:54;6.60;;;4.80;;
15266;SDS011;7735;49.144;8.668;2023-06-26T03:41:22;6.00;;;4.37;;
15266;SDS011;7735;49.144;8.668;2023-06-26T03:43:50;7.37;;;4.90;;
15266;SDS011;7735;49.144;8.668;2023-06-26T03:46:16;7.00;;;5.27;;
15266;SDS011;7735;49.144;8.668;2023-06-26T03:48:43;8.43;;;4.63;;
15266;SDS011;7735;49.144;8.668;2023-06-26T03:51:10;6.07;;;4.43;;
15266;SDS011;7735;49.144;8.668;2023-06-26T03:53:36;7.73;;;5.17;;
15266;SDS011;7735;49.144;8.668;2023-06-26T03:56:03;6.63;;;4.87;;
15266;SDS011;7735;49.144;8.668;2023-06-26T03:58:30;7.57;;;4.90;;
15266;SDS011;7735;49.144;8.668;2023-06-26T04:00:58;6.80;;;4.87;;
15266;SDS011;7735;49.144;8.668;2023-06-26T04:03:25;7.17;;;5.13;;
15266;SDS011;7735;49.144;8.668;2023-06-26T04:05:52;8.47;;;5.20;;
15266;SDS011;7735;49.144;8.668;2023-06-26T04:08:18;7.43;;;5.00;;
15266;SDS011;7735;49.144;8.668;2023-06-26T04:10:45;7.67;;;4.80;;
15266;SDS011;7735;49.144;8.668;2023-06-26T04:13:13;6.77;;;5.33;;
15266;SDS011;7735;49.144;8.668;2023-06-26T04:15:40;8.90;;;5.37;;
15266;SDS011;7735;49.144;8.668;2023-06-26T04:18:08;11.33;;;4.93;;
15266;SDS011;7735;49.144;8.668;2023-06-26T04:20:37;9.37;;;5.20;;
15266;SDS011;7735;49.144;8.668;2023-06-26T04:23:05;7.60;;;5.10;;
15266;SDS011;7735;49.144;8.668;2023-06-26T04:25:31;7.67;;;4.67;;
15266;SDS011;7735;49.144;8.668;2023-06-26T04:27:58;8.57;;;5.30;;
15266;SDS011;7735;49.144;8.668;2023-06-26T04:30:25;10.57;;;6.07;;
15266;SDS011;7735;49.144;8.668;2023-06-26T04:32:52;6.23;;;4.60;;
15266;SDS011;7735;49.144;8.668;2023-06-26T04:35:20;7.77;;;5.00;;
15266;SDS011;7735;49.144;8.668;2023-06-26T04:37:47;9.87;;;5.27;;
15266;SDS011;7735;49.144;8.668;2023-06-26T04:40:15;9.77;;;5.43;;
15266;SDS011;7735;49.144;8.668;2023-06-26T04:42:42;8.30;;;5.10;;
15266;SDS011;7735;49.144;8.668;2023-06-26T04:45:11;6.77;;;4.77;;
15266;SDS011;7735;49.144;8.668;2023-06-26T04:47:38;7.00;;;5.30;;
15266;SDS011;7735;49.144;8.668;2023-06-26T04:50:05;8.50;;;5.00;;
15266;SDS011;7735;49.144;8.668;2023-06-26T04:52:34;8.00;;;4.87;;
15266;SDS011;7735;49.144;8.668;2023-06-26T04:55:00;6.80;;;4.93;;
15266;SDS011;7735;49.144;8.668;2023-06-26T04:57:27;6.63;;;4.60;;
15266;SDS011;7735;49.144;8.668;2023-06-26T04:59:53;9.83;;;5.23;;
15266;SDS011;7735;49.144;8.668;2023-06-26T05:02:20;7.73;;;5.00;;
15266;SDS011;7735;49.144;8.668;2023-06-26T05:04:47;7.13;;;4.80;;
15266;SDS011;7735;49.144;8.668;2023-06-26T05:07:13;10.40;;;5.57;;
15266;SDS011;7735;49.144;8.668;2023-06-26T05:09:41;6.87;;;5.13;;
15266;SDS011;7735;49.144;8.668;2023-06-26T05:12:08;8.10;;;5.13;;
15266;SDS011;7735;49.144;8.668;2023-06-26T05:14:35;10.50;;;5.70;;
15266;SDS011;7735;49.144;8.668;2023-06-26T05:17:01;8.73;;;5.17;;
15266;SDS011;7735;49.144;8.668;2023-06-26T05:19:28;6.20;;;4.63;;
15266;SDS011;7735;49.144;8.668;2023-06-26T05:21:57;9.63;;;4.80;;
15266;SDS011;7735;49.144;8.668;2023-06-26T05:24:26;8.97;;;5.47;;
15266;SDS011;7735;49.144;8.668;2023-06-26T05:26:56;7.63;;;5.07;;
15266;SDS011;7735;49.144;8.668;2023-06-26T05:29:23;7.50;;;5.17;;
15266;SDS011;7735;49.144;8.668;2023-06-26T05:31:50;10.13;;;5.60;;
15266;SDS011;7735;49.144;8.668;2023-06-26T05:34:18;8.50;;;5.13;;
15266;SDS011;7735;49.144;8.668;2023-06-26T05:36:48;9.43;;;5.27;;
15266;SDS011;7735;49.144;8.668;2023-06-26T05:39:17;10.57;;;6.73;;
15266;SDS011;7735;49.144;8.668;2023-06-26T05:41:44;5.93;;;4.60;;
15266;SDS011;7735;49.144;8.668;2023-06-26T05:44:13;9.93;;;5.57;;
15266;SDS011;7735;49.144;8.668;2023-06-26T05:46:39;7.47;;;5.17;;
15266;SDS011;7735;49.144;8.668;2023-06-26T05:49:06;7.17;;;5.17;;
15266;SDS011;7735;49.144;8.668;2023-06-26T05:51:32;9.30;;;5.13;;
15266;SDS011;7735;49.144;8.668;2023-06-26T05:54:00;7.37;;;5.33;;
15266;SDS011;7735;49.144;8.668;2023-06-26T05:56:41;8.57;;;5.40;;
15266;SDS011;7735;49.144;8.668;2023-06-26T05:59:27;9.77;;;5.00;;
15266;SDS011;7735;49.144;8.668;2023-06-26T06:01:56;8.93;;;4.73;;
15266;SDS011;7735;49.144;8.668;2023-06-26T06:04:22;8.23;;;5.33;;
15266;SDS011;7735;49.144;8.668;2023-06-26T06:06:49;8.00;;;5.17;;
15266;SDS011;7735;49.144;8.668;2023-06-26T06:09:16;7.10;;;5.00;;
15266;SDS011;7735;49.144;8.668;2023-06-26T06:11:42;8.90;;;5.87;;
15266;SDS011;7735;49.144;8.668;2023-06-26T06:14:09;6.80;;;4.70;;
15266;SDS011;7735;49.144;8.668;2023-06-26T06:16:37;7.80;;;5.27;;
15266;SDS011;7735;49.144;8.668;2023-06-26T06:19:03;7.63;;;4.77;;
15266;SDS011;7735;49.144;8.668;2023-06-26T06:21:32;9.07;;;5.10;;
15266;SDS011;7735;49.144;8.668;2023-06-26T06:23:59;10.17;;;5.17;;
15266;SDS011;7735;49.144;8.668;2023-06-26T06:26:26;8.67;;;5.37;;
15266;SDS011;7735;49.144;8.668;2023-06-26T06:28:52;6.87;;;4.93;;
15266;SDS011;7735;49.144;8.668;2023-06-26T06:31:19;8.07;;;5.40;;
15266;SDS011;7735;49.144;8.668;2023-06-26T06:33:47;7.60;;;4.93;;
15266;SDS011;7735;49.144;8.668;2023-06-26T06:36:14;9.80;;;5.17;;
15266;SDS011;7735;49.144;8.668;2023-06-26T06:38:42;8.80;;;5.77;;
15266;SDS011;7735;49.144;8.668;2023-06-26T06:41:09;7.27;;;5.63;;
15266;SDS011;7735;49.144;8.668;2023-06-26T06:43:37;7.90;;;5.17;;
15266;SDS011;7735;49.144;8.668;2023-06-26T06:46:04;8.03;;;5.20;;
15266;SDS011;7735;49.144;8.668;2023-06-26T06:48:31;6.53;;;4.93;;
15266;SDS011;7735;49.144;8.668;2023-06-26T06:50:59;6.33;;;4.40;;
15266;SDS011;7735;49.144;8.668;2023-06-26T06:53:26;7.53;;;4.83;;
15266;SDS011;7735;49.144;8.668;2023-06-26T06:55:52;9.67;;;4.53;;
15266;SDS011;7735;49.144;8.668;2023-06-26T06:58:19;5.67;;;4.40;;
15266;SDS011;7735;49.144;8.668;2023-06-26T07:00:45;6.73;;;4.80;;
15266;SDS011;7735;49.144;8.668;2023-06-26T07:03:12;6.97;;;4.80;;
15266;SDS011;7735;49.144;8.668;2023-06-26T07:05:40;7.07;;;5.00;;
15266;SDS011;7735;49.144;8.668;2023-06-26T07:08:12;6.30;;;4.50;;
15266;SDS011;7735;49.144;8.668;2023-06-26T07:10:39;7.37;;;4.97;;
15266;SDS011;7735;49.144;8.668;2023-06-26T07:13:06;6.17;;;4.73;;
15266;SDS011;7735;49.144;8.668;2023-06-26T07:15:34;6.03;;;4.40;;
15266;SDS011;7735;49.144;8.668;2023-06-26T07:18:04;7.10;;;4.50;;
15266;SDS011;7735;49.144;8.668;2023-06-26T07:20:36;8.00;;;5.17;;
15266;SDS011;7735;49.144;8.668;2023-06-26T07:23:05;10.23;;;4.63;;
15266;SDS011;7735;49.144;8.668;2023-06-26T07:25:33;8.63;;;4.70;;
15266;SDS011;7735;49.144;8.668;2023-06-26T07:28:02;5.53;;;4.20;;
15266;SDS011;7735;49.144;8.668;2023-06-26T07:30:35;7.10;;;5.10;;
15266;SDS011;7735;49.144;8.668;2023-06-26T07:33:02;7.00;;;4.70;;
15266;SDS011;7735;49.144;8.668;2023-06-26T07:35:29;6.77;;;4.43;;
15266;SDS011;7735;49.144;8.668;2023-06-26T07:37:55;6.30;;;4.47;;
15266;SDS011;7735;49.144;8.668;2023-06-26T07:40:22;7.97;;;4.87;;
15266;SDS011;7735;49.144;8.668;2023-06-26T07:42:50;6.77;;;5.10;;
15266;SDS011;7735;49.144;8.668;2023-06-26T07:45:16;5.87;;;4.20;;
15266;SDS011;7735;49.144;8.668;2023-06-26T07:47:43;6.77;;;4.83;;
15266;SDS011;7735;49.144;8.668;2023-06-26T07:50:11;6.27;;;4.80;;
15266;SDS011;7735;49.144;8.668;2023-06-26T07:52:40;7.83;;;4.87;;
15266;SDS011;7735;49.144;8.668;2023-06-26T07:55:09;6.77;;;4.47;;
15266;SDS011;7735;49.144;8.668;2023-06-26T07:57:43;8.63;;;4.23;;
15266;SDS011;7735;49.144;8.668;2023-06-26T08:00:17;6.30;;;4.70;;
15266;SDS011;7735;49.144;8.668;2023-06-26T08:02:46;6.43;;;4.87;;
15266;SDS011;7735;49.144;8.668;2023-06-26T08:05:13;9.13;;;4.37;;
15266;SDS011;7735;49.144;8.668;2023-06-26T08:07:40;6.30;;;4.50;;
15266;SDS011;7735;49.144;8.668;2023-06-26T08:10:06;5.70;;;4.43;;
15266;SDS011;7735;49.144;8.668;2023-06-26T08:12:36;7.83;;;4.23;;
15266;SDS011;7735;49.144;8.668;2023-06-26T08:15:07;5.90;;;4.17;;
15266;SDS011;7735;49.144;8.668;2023-06-26T08:17:43;7.83;;;4.40;;
15266;SDS011;7735;49.144;8.668;2023-06-26T08:20:13;6.67;;;5.37;;
15266;SDS011;7735;49.144;8.668;2023-06-26T08:22:45;5.68;;;4.40;;
15266;SDS011;7735;49.144;8.668;2023-06-26T08:25:28;6.23;;;4.40;;
15266;SDS011;7735;49.144;8.668;2023-06-26T08:27:59;7.22;;;4.45;;
15266;SDS011;7735;49.144;8.668;2023-06-26T08:30:40;5.57;;;4.63;;
15266;SDS011;7735;49.144;8.668;2023-06-26T08:33:16;4.95;;;4.10;;
15266;SDS011;7735;49.144;8.668;2023-06-26T08:35:56;7.55;;;4.75;;
15266;SDS011;7735;49.144;8.668;2023-06-26T08:38:26;6.88;;;4.55;;
15266;SDS011;7735;49.144;8.668;2023-06-26T08:41:00;5.85;;;4.30;;
15266;SDS011;7735;49.144;8.668;2023-06-26T08:43:36;4.97;;;4.00;;
15266;SDS011;7735;49.144;8.668;2023-06-26T08:46:03;5.03;;;3.70;;
15266;SDS011;7735;49.144;8.668;2023-06-26T08:48:36;6.35;;;4.60;;
15266;SDS011;7735;49.144;8.668;2023-06-26T08:51:16;5.20;;;3.95;;
15266;SDS011;7735;49.144;8.668;2023-06-26T08:53:55;8.15;;;5.38;;
15266;SDS011;7735;49.144;8.668;2023-06-26T08:56:27;8.35;;;5.20;;
15266;SDS011;7735;49.144;8.668;2023-06-26T08:58:56;5.40;;;4.32;;
15266;SDS011;7735;49.144;8.668;2023-06-26T09:01:26;7.13;;;5.13;;
15266;SDS011;7735;49.144;8.668;2023-06-26T09:04:01;9.48;;;5.00;;
15266;SDS011;7735;49.144;8.668;2023-06-26T09:06:48;6.68;;;5.40;;
15266;SDS011;7735;49.144;8.668;2023-06-26T09:09:17;6.55;;;4.93;;
15266;SDS011;7735;49.144;8.668;2023-06-26T09:11:48;7.43;;;5.63;;
15266;SDS011;7735;49.144;8.668;2023-06-26T09:14:21;7.28;;;5.00;;
15266;SDS011;7735;49.144;8.668;2023-06-26T09:16:52;6.88;;;4.80;;
15266;SDS011;7735;49.144;8.668;2023-06-26T09:19:31;7.67;;;6.00;;
15266;SDS011;7735;49.144;8.668;2023-06-26T09:22:03;9.45;;;5.35;;
15266;SDS011;7735;49.144;8.668;2023-06-26T09:24:43;6.57;;;5.30;;
15266;SDS011;7735;49.144;8.668;2023-06-26T09:27:25;8.73;;;5.22;;
15266;SDS011;7735;49.144;8.668;2023-06-26T09:29:57;7.20;;;5.10;;
15266;SDS011;7735;49.144;8.668;2023-06-26T09:32:36;9.00;;;5.50;;
15266;SDS011;7735;49.144;8.668;2023-06-26T09:35:27;8.15;;;5.25;;
15266;SDS011;7735;49.144;8.668;2023-06-26T09:38:05;7.78;;;6.03;;
15266;SDS011;7735;49.144;8.668;2023-06-26T09:40:47;7.07;;;5.50;;
15266;SDS011;7735;49.144;8.668;2023-06-26T09:43:17;7.47;;;5.68;;
15266;SDS011;7735;49.144;8.668;2023-06-26T09:45:55;6.03;;;3.47;;
15266;SDS011;7735;49.144;8.668;2023-06-26T09:48:35;9.05;;;5.75;;
15266;SDS011;7735;49.144;8.668;2023-06-26T09:51:14;6.63;;;5.22;;
15266;SDS011;7735;49.144;8.668;2023-06-26T09:53:52;7.50;;;5.90;;
15266;SDS011;7735;49.144;8.668;2023-06-26T09:56:23;8.95;;;5.57;;
15266;SDS011;7735;49.144;8.668;2023-06-26T09:58:58;6.32;;;5.20;;
15266;SDS011;7735;49.144;8.668;2023-06-26T10:01:32;8.05;;;5.45;;
15266;SDS011;7735;49.144;8.668;2023-06-26T10:04:04;6.88;;;5.15;;
15266;SDS011;7735;49.144;8.668;2023-06-26T10:06:41;6.47;;;4.82;;
15266;SDS011;7735;49.144;8.668;2023-06-26T10:09:24;8.65;;;5.30;;
15266;SDS011;7735;49.144;8.668;2023-06-26T10:12:10;6.97;;;5.40;;
15266;SDS011;7735;49.144;8.668;2023-06-26T10:14:53;6.88;;;4.75;;
15266;SDS011;7735;49.144;8.668;2023-06-26T10:17:30;6.45;;;5.45;;
15266;SDS011;7735;49.144;8.668;2023-06-26T10:20:08;7.47;;;5.47;;
15266;SDS011;7735;49.144;8.668;2023-06-26T10:22:55;6.43;;;5.57;;
15266;SDS011;7735;49.144;8.668;2023-06-26T10:25:37;6.72;;;5.10;;
15266;SDS011;7735;49.144;8.668;2023-06-26T10:28:17;6.88;;;4.90;;
15266;SDS011;7735;49.144;8.668;2023-06-26T10:30:53;6.13;;;4.72;;
15266;SDS011;7735;49.144;8.668;2023-06-26T10:33:30;7.47;;;5.10;;
15266;SDS011;7735;49.144;8.668;2023-06-26T10:36:26;6.28;;;4.47;;
15266;SDS011;7735;49.144;8.668;2023-06-26T10:39:03;6.25;;;4.90;;
15266;SDS011;7735;49.144;8.668;2023-06-26T10:41:35;7.30;;;5.43;;
15266;SDS011;7735;49.144;8.668;2023-06-26T10:44:06;8.40;;;5.03;;
15266;SDS011;7735;49.144;8.668;2023-06-26T10:46:48;6.05;;;5.30;;
15266;SDS011;7735;49.144;8.668;2023-06-26T10:49:23;6.50;;;5.18;;
15266;SDS011;7735;49.144;8.668;2023-06-26T10:51:55;7.13;;;5.00;;
15266;SDS011;7735;49.144;8.668;2023-06-26T10:54:44;6.50;;;5.03;;
15266;SDS011;7735;49.144;8.668;2023-06-26T10:57:22;5.80;;;4.95;;
15266;SDS011;7735;49.144;8.668;2023-06-26T10:59:57;6.68;;;5.32;;
15266;SDS011;7735;49.144;8.668;2023-06-26T11:02:46;6.70;;;4.93;;
15266;SDS011;7735;49.144;8.668;2023-06-26T11:05:28;6.20;;;5.28;;
15266;SDS011;7735;49.144;8.668;2023-06-26T11:08:06;6.20;;;5.03;;
15266;SDS011;7735;49.144;8.668;2023-06-26T11:10:59;5.68;;;4.35;;
15266;SDS011;7735;49.144;8.668;2023-06-26T11:13:44;7.28;;;3.40;;
15266;SDS011;7735;49.144;8.668;2023-06-26T11:16:24;5.85;;;3.78;;
15266;SDS011;7735;49.144;8.668;2023-06-26T11:18:56;7.13;;;5.20;;
15266;SDS011;7735;49.144;8.668;2023-06-26T11:21:36;8.48;;;5.22;;
15266;SDS011;7735;49.144;8.668;2023-06-26T11:24:15;6.82;;;5.20;;
15266;SDS011;7735;49.144;8.668;2023-06-26T11:26:49;10.00;;;4.35;;
15266;SDS011;7735;49.144;8.668;2023-06-26T11:29:21;7.32;;;4.80;;
15266;SDS011;7735;49.144;8.668;2023-06-26T11:31:48;9.77;;;4.30;;
15266;SDS011;7735;49.144;8.668;2023-06-26T11:34:36;7.30;;;4.72;;
15266;SDS011;7735;49.144;8.668;2023-06-26T11:37:03;8.02;;;4.65;;
15266;SDS011;7735;49.144;8.668;2023-06-26T11:39:31;5.97;;;4.40;;
15266;SDS011;7735;49.144;8.668;2023-06-26T11:42:07;5.32;;;4.00;;
15266;SDS011;7735;49.144;8.668;2023-06-26T11:44:40;9.57;;;3.50;;
15266;SDS011;7735;49.144;8.668;2023-06-26T11:47:18;7.43;;;4.60;;
15266;SDS011;7735;49.144;8.668;2023-06-26T11:49:58;6.82;;;4.40;;
15266;SDS011;7735;49.144;8.668;2023-06-26T11:52:36;5.65;;;4.40;;
15266;SDS011;7735;49.144;8.668;2023-06-26T11:55:08;6.53;;;5.10;;
15266;SDS011;7735;49.144;8.668;2023-06-26T11:57:50;5.82;;;4.07;;
15266;SDS011;7735;49.144;8.668;2023-06-26T12:00:36;6.25;;;4.65;;
15266;SDS011;7735;49.144;8.668;2023-06-26T12:03:13;5.60;;;4.30;;
15266;SDS011;7735;49.144;8.668;2023-06-26T12:05:50;6.47;;;4.45;;
15266;SDS011;7735;49.144;8.668;2023-06-26T12:08:21;7.75;;;4.43;;
15266;SDS011;7735;49.144;8.668;2023-06-26T12:11:01;6.65;;;4.45;;
15266;SDS011;7735;49.144;8.668;2023-06-26T12:13:37;5.53;;;3.55;;
15266;SDS011;7735;49.144;8.668;2023-06-26T12:16:27;6.80;;;4.25;;
15266;SDS011;7735;49.144;8.668;2023-06-26T12:19:23;3.70;;;2.58;;
15266;SDS011;7735;49.144;8.668;2023-06-26T12:21:53;5.38;;;3.80;;
15266;SDS011;7735;49.144;8.668;2023-06-26T12:24:33;8.98;;;4.50;;
15266;SDS011;7735;49.144;8.668;2023-06-26T12:27:07;52.53;;;7.97;;
15266;SDS011;7735;49.144;8.668;2023-06-26T12:29:49;6.72;;;4.22;;
15266;SDS011;7735;49.144;8.668;2023-06-26T12:32:18;4.72;;;3.03;;
15266;SDS011;7735;49.144;8.668;2023-06-26T12:34:51;5.55;;;4.00;;
15266;SDS011;7735;49.144;8.668;2023-06-26T12:37:18;5.63;;;2.38;;
15266;SDS011;7735;49.144;8.668;2023-06-26T12:39:54;3.20;;;2.88;;
15266;SDS011;7735;49.144;8.668;2023-06-26T12:42:25;7.25;;;4.38;;
15266;SDS011;7735;49.144;8.668;2023-06-26T12:45:09;6.32;;;3.58;;
15266;SDS011;7735;49.144;8.668;2023-06-26T12:47:36;6.22;;;3.53;;
15266;SDS011;7735;49.144;8.668;2023-06-26T12:50:06;4.32;;;3.10;;
15266;SDS011;7735;49.144;8.668;2023-06-26T12:52:37;5.25;;;3.45;;
15266;SDS011;7735;49.144;8.668;2023-06-26T12:55:06;6.53;;;3.47;;
15266;SDS011;7735;49.144;8.668;2023-06-26T12:57:38;4.80;;;2.75;;
15266;SDS011;7735;49.144;8.668;2023-06-26T13:02:53;3.88;;;2.97;;
15266;SDS011;7735;49.144;8.668;2023-06-26T13:05:37;3.58;;;2.85;;
15266;SDS011;7735;49.144;8.668;2023-06-26T13:08:17;3.88;;;2.83;;
15266;SDS011;7735;49.144;8.668;2023-06-26T13:11:13;3.28;;;2.72;;
15266;SDS011;7735;49.144;8.668;2023-06-26T13:14:03;4.13;;;3.05;;
15266;SDS011;7735;49.144;8.668;2023-06-26T13:16:35;3.67;;;2.83;;
15266;SDS011;7735;49.144;8.668;2023-06-26T13:19:07;4.32;;;2.90;;
15266;SDS011;7735;49.144;8.668;2023-06-26T13:21:38;6.65;;;3.10;;
15266;SDS011;7735;49.144;8.668;2023-06-26T13:24:05;4.40;;;1.90;;
15266;SDS011;7735;49.144;8.668;2023-06-26T13:26:38;2.25;;;1.50;;
15266;SDS011;7735;49.144;8.668;2023-06-26T13:29:05;2.75;;;2.38;;
15266;SDS011;7735;49.144;8.668;2023-06-26T13:31:32;3.10;;;2.70;;
15266;SDS011;7735;49.144;8.668;2023-06-26T13:34:05;5.97;;;2.75;;
15266;SDS011;7735;49.144;8.668;2023-06-26T13:36:33;4.32;;;2.60;;
15266;SDS011;7735;49.144;8.668;2023-06-26T13:39:02;3.60;;;2.80;;
15266;SDS011;7735;49.144;8.668;2023-06-26T13:41:29;4.63;;;2.92;;
15266;SDS011;7735;49.144;8.668;2023-06-26T13:44:01;5.88;;;3.15;;
15266;SDS011;7735;49.144;8.668;2023-06-26T13:46:32;5.88;;;3.05;;
15266;SDS011;7735;49.144;8.668;2023-06-26T13:49:05;4.32;;;2.90;;
15266;SDS011;7735;49.144;8.668;2023-06-26T13:51:35;4.65;;;3.20;;
15266;SDS011;7735;49.144;8.668;2023-06-26T13:54:03;4.07;;;3.20;;
15266;SDS011;7735;49.144;8.668;2023-06-26T13:56:30;8.43;;;4.10;;
15266;SDS011;7735;49.144;8.668;2023-06-26T13:59:00;5.43;;;4.28;;
15266;SDS011;7735;49.144;8.668;2023-06-26T14:01:32;7.18;;;4.20;;
15266;SDS011;7735;49.144;8.668;2023-06-26T14:03:59;4.43;;;3.08;;
15266;SDS011;7735;49.144;8.668;2023-06-26T14:06:27;8.15;;;5.13;;
15266;SDS011;7735;49.144;8.668;2023-06-26T14:08:55;5.97;;;4.70;;
15266;SDS011;7735;49.144;8.668;2023-06-26T14:11:35;6.15;;;4.70;;
15266;SDS011;7735;49.144;8.668;2023-06-26T14:14:02;7.13;;;5.43;;
15266;SDS011;7735;49.144;8.668;2023-06-26T14:16:30;9.80;;;4.75;;
15266;SDS011;7735;49.144;8.668;2023-06-26T14:19:02;7.72;;;4.25;;
15266;SDS011;7735;49.144;8.668;2023-06-26T14:21:32;9.13;;;4.93;;
15266;SDS011;7735;49.144;8.668;2023-06-26T14:23:59;8.00;;;4.65;;
15266;SDS011;7735;49.144;8.668;2023-06-26T14:26:27;5.32;;;3.90;;
15266;SDS011;7735;49.144;8.668;2023-06-26T14:28:55;8.52;;;5.85;;
15266;SDS011;7735;49.144;8.668;2023-06-26T14:31:21;6.45;;;4.35;;
15266;SDS011;7735;49.144;8.668;2023-06-26T14:33:48;8.15;;;5.60;;
15266;SDS011;7735;49.144;8.668;2023-06-26T14:36:19;7.68;;;5.45;;
15266;SDS011;7735;49.144;8.668;2023-06-26T14:38:53;9.32;;;5.57;;
15266;SDS011;7735;49.144;8.668;2023-06-26T14:41:23;9.18;;;6.45;;
15266;SDS011;7735;49.144;8.668;2023-06-26T14:43:50;10.27;;;4.95;;
15266;SDS011;7735;49.144;8.668;2023-06-26T14:46:17;9.00;;;6.10;;
15266;SDS011;7735;49.144;8.668;2023-06-26T14:48:50;8.48;;;4.68;;
15266;SDS011;7735;49.144;8.668;2023-06-26T14:51:18;3.65;;;2.55;;
15266;SDS011;7735;49.144;8.668;2023-06-26T14:53:48;5.03;;;3.10;;
15266;SDS011;7735;49.144;8.668;2023-06-26T14:56:26;5.90;;;3.00;;
15266;SDS011;7735;49.144;8.668;2023-06-26T14:58:58;5.78;;;2.70;;
15266;SDS011;7735;49.144;8.668;2023-06-26T15:01:24;4.68;;;2.38;;
15266;SDS011;7735;49.144;8.668;2023-06-26T15:03:52;4.43;;;2.03;;
15266;SDS011;7735;49.144;8.668;2023-06-26T15:06:19;3.10;;;2.28;;
15266;SDS011;7735;49.144;8.668;2023-06-26T15:08:46;4.63;;;2.00;;
15266;SDS011;7735;49.144;8.668;2023-06-26T15:11:14;3.47;;;2.10;;
15266;SDS011;7735;49.144;8.668;2023-06-26T15:14:00;3.13;;;1.95;;
15266;SDS011;7735;49.144;8.668;2023-06-26T15:16:27;2.85;;;1.60;;
15266;SDS011;7735;49.144;8.668;2023-06-26T15:18:53;3.85;;;1.90;;
15266;SDS011;7735;49.144;8.668;2023-06-26T15:21:20;2.28;;;1.35;;
15266;SDS011;7735;49.144;8.668;2023-06-26T15:23:47;2.67;;;1.60;;
15266;SDS011;7735;49.144;8.668;2023-06-26T15:26:16;1.42;;;1.05;;